sensor_id;sensor_type;location;lat;lon;timestamp;P1;durP1;ratioP1;P2;durP2;ratioP2
21905;SDS011;11117;48.644;9.006;2022-08-24T00:01:17;8.53;;;4.87;;
21905;SDS011;11117;48.644;9.006;2022-08-24T00:03:43;8.63;;;4.20;;
21905;SDS011;11117;48.644;9.006;2022-08-24T00:06:11;7.25;;;4.07;;
21905;SDS011;11117;48.644;9.006;2022-08-24T00:08:42;7.27;;;4.13;;
21905;SDS011;11117;48.644;9.006;2022-08-24T00:11:08;9.80;;;4.33;;
21905;SDS011;11117;48.644;9.006;2022-08-24T00:13:34;8.37;;;4.13;;
21905;SDS011;11117;48.644;9.006;2022-08-24T00:16:00;6.27;;;3.90;;
21905;SDS011;11117;48.644;9.006;2022-08-24T00:18:25;7.03;;;3.90;;
21905;SDS011;11117;48.644;9.006;2022-08-24T00:20:51;9.90;;;4.23;;
21905;SDS011;11117;48.644;9.006;2022-08-24T00:23:18;5.93;;;3.95;;
21905;SDS011;11117;48.644;9.006;2022-08-24T00:25:44;6.37;;;4.10;;
21905;SDS011;11117;48.644;9.006;2022-08-24T00:28:10;8.43;;;4.17;;
21905;SDS011;11117;48.644;9.006;2022-08-24T00:30:36;9.60;;;4.57;;
21905;SDS011;11117;48.644;9.006;2022-08-24T00:33:02;5.37;;;4.10;;
21905;SDS011;11117;48.644;9.006;2022-08-24T00:35:28;10.73;;;4.57;;
21905;SDS011;11117;48.644;9.006;2022-08-24T00:37:54;8.13;;;4.53;;
21905;SDS011;11117;48.644;9.006;2022-08-24T00:40:25;8.90;;;4.33;;
21905;SDS011;11117;48.644;9.006;2022-08-24T00:42:53;5.70;;;4.10;;
21905;SDS011;11117;48.644;9.006;2022-08-24T00:45:20;5.93;;;4.27;;
21905;SDS011;11117;48.644;9.006;2022-08-24T00:47:48;8.10;;;3.80;;
21905;SDS011;11117;48.644;9.006;2022-08-24T00:50:24;5.87;;;4.10;;
21905;SDS011;11117;48.644;9.006;2022-08-24T00:53:03;6.50;;;4.50;;
21905;SDS011;11117;48.644;9.006;2022-08-24T00:55:39;7.03;;;4.23;;
21905;SDS011;11117;48.644;9.006;2022-08-24T00:59:00;5.90;;;4.33;;
21905;SDS011;11117;48.644;9.006;2022-08-24T01:01:29;6.30;;;4.37;;
21905;SDS011;11117;48.644;9.006;2022-08-24T01:03:57;7.07;;;4.40;;
21905;SDS011;11117;48.644;9.006;2022-08-24T01:06:23;7.60;;;4.70;;
21905;SDS011;11117;48.644;9.006;2022-08-24T01:08:49;7.53;;;4.40;;
21905;SDS011;11117;48.644;9.006;2022-08-24T01:11:19;7.43;;;4.70;;
21905;SDS011;11117;48.644;9.006;2022-08-24T01:13:48;11.03;;;4.50;;
21905;SDS011;11117;48.644;9.006;2022-08-24T01:16:16;6.17;;;4.67;;
21905;SDS011;11117;48.644;9.006;2022-08-24T01:18:42;14.07;;;4.90;;
21905;SDS011;11117;48.644;9.006;2022-08-24T01:21:11;5.50;;;4.20;;
21905;SDS011;11117;48.644;9.006;2022-08-24T01:23:53;9.80;;;4.60;;
21905;SDS011;11117;48.644;9.006;2022-08-24T01:26:22;7.60;;;4.50;;
21905;SDS011;11117;48.644;9.006;2022-08-24T01:28:54;11.53;;;4.50;;
21905;SDS011;11117;48.644;9.006;2022-08-24T01:31:22;6.80;;;4.47;;
21905;SDS011;11117;48.644;9.006;2022-08-24T01:33:49;5.17;;;4.67;;
21905;SDS011;11117;48.644;9.006;2022-08-24T01:38:57;9.50;;;4.40;;
21905;SDS011;11117;48.644;9.006;2022-08-24T01:41:27;6.63;;;4.67;;
21905;SDS011;11117;48.644;9.006;2022-08-24T01:43:53;8.67;;;4.50;;
21905;SDS011;11117;48.644;9.006;2022-08-24T01:46:18;10.03;;;4.57;;
21905;SDS011;11117;48.644;9.006;2022-08-24T01:48:44;7.50;;;5.00;;
21905;SDS011;11117;48.644;9.006;2022-08-24T01:51:09;5.63;;;4.50;;
21905;SDS011;11117;48.644;9.006;2022-08-24T01:53:35;6.43;;;4.43;;
21905;SDS011;11117;48.644;9.006;2022-08-24T01:56:02;6.37;;;4.30;;
21905;SDS011;11117;48.644;9.006;2022-08-24T01:58:28;7.53;;;4.57;;
21905;SDS011;11117;48.644;9.006;2022-08-24T02:00:53;7.17;;;4.83;;
21905;SDS011;11117;48.644;9.006;2022-08-24T02:03:19;8.10;;;5.10;;
21905;SDS011;11117;48.644;9.006;2022-08-24T02:05:44;6.77;;;4.63;;
21905;SDS011;11117;48.644;9.006;2022-08-24T02:08:10;5.87;;;4.57;;
21905;SDS011;11117;48.644;9.006;2022-08-24T02:10:36;8.03;;;4.50;;
21905;SDS011;11117;48.644;9.006;2022-08-24T02:13:01;10.20;;;4.50;;
21905;SDS011;11117;48.644;9.006;2022-08-24T02:15:35;7.50;;;4.57;;
21905;SDS011;11117;48.644;9.006;2022-08-24T02:18:02;6.10;;;4.50;;
21905;SDS011;11117;48.644;9.006;2022-08-24T02:20:28;7.47;;;4.70;;
21905;SDS011;11117;48.644;9.006;2022-08-24T02:22:53;5.13;;;4.57;;
21905;SDS011;11117;48.644;9.006;2022-08-24T02:25:19;8.43;;;4.17;;
21905;SDS011;11117;48.644;9.006;2022-08-24T02:27:45;7.13;;;4.70;;
21905;SDS011;11117;48.644;9.006;2022-08-24T02:30:11;6.10;;;4.20;;
21905;SDS011;11117;48.644;9.006;2022-08-24T02:32:37;9.47;;;4.50;;
21905;SDS011;11117;48.644;9.006;2022-08-24T02:35:03;9.67;;;4.47;;
21905;SDS011;11117;48.644;9.006;2022-08-24T02:37:29;10.43;;;4.60;;
21905;SDS011;11117;48.644;9.006;2022-08-24T02:39:54;5.93;;;4.57;;
21905;SDS011;11117;48.644;9.006;2022-08-24T02:42:20;6.37;;;4.30;;
21905;SDS011;11117;48.644;9.006;2022-08-24T02:44:45;8.67;;;4.50;;
21905;SDS011;11117;48.644;9.006;2022-08-24T02:47:11;9.00;;;4.50;;
21905;SDS011;11117;48.644;9.006;2022-08-24T02:49:36;7.13;;;4.57;;
21905;SDS011;11117;48.644;9.006;2022-08-24T02:52:02;5.90;;;4.70;;
21905;SDS011;11117;48.644;9.006;2022-08-24T02:54:29;8.73;;;4.87;;
21905;SDS011;11117;48.644;9.006;2022-08-24T02:56:54;5.80;;;4.50;;
21905;SDS011;11117;48.644;9.006;2022-08-24T02:59:20;11.40;;;4.73;;
21905;SDS011;11117;48.644;9.006;2022-08-24T03:01:46;9.33;;;5.03;;
21905;SDS011;11117;48.644;9.006;2022-08-24T03:04:11;7.43;;;4.80;;
21905;SDS011;11117;48.644;9.006;2022-08-24T03:06:37;6.57;;;5.00;;
21905;SDS011;11117;48.644;9.006;2022-08-24T03:09:03;5.57;;;4.60;;
21905;SDS011;11117;48.644;9.006;2022-08-24T03:11:29;9.57;;;4.90;;
21905;SDS011;11117;48.644;9.006;2022-08-24T03:13:55;28.90;;;15.50;;
21905;SDS011;11117;48.644;9.006;2022-08-24T03:16:21;66.67;;;31.70;;
21905;SDS011;11117;48.644;9.006;2022-08-24T03:18:46;38.97;;;19.70;;
21905;SDS011;11117;48.644;9.006;2022-08-24T03:21:12;32.07;;;17.40;;
21905;SDS011;11117;48.644;9.006;2022-08-24T03:23:37;27.53;;;14.40;;
21905;SDS011;11117;48.644;9.006;2022-08-24T03:26:03;17.27;;;9.90;;
21905;SDS011;11117;48.644;9.006;2022-08-24T03:28:29;14.07;;;7.30;;
21905;SDS011;11117;48.644;9.006;2022-08-24T03:30:54;10.57;;;5.63;;
21905;SDS011;11117;48.644;9.006;2022-08-24T03:33:20;8.40;;;6.00;;
21905;SDS011;11117;48.644;9.006;2022-08-24T03:35:45;5.97;;;5.10;;
21905;SDS011;11117;48.644;9.006;2022-08-24T03:38:11;6.53;;;5.00;;
21905;SDS011;11117;48.644;9.006;2022-08-24T03:40:37;8.70;;;5.43;;
21905;SDS011;11117;48.644;9.006;2022-08-24T03:43:03;8.07;;;4.73;;
21905;SDS011;11117;48.644;9.006;2022-08-24T03:45:28;8.40;;;5.73;;
21905;SDS011;11117;48.644;9.006;2022-08-24T03:47:54;9.50;;;5.40;;
21905;SDS011;11117;48.644;9.006;2022-08-24T03:50:21;10.77;;;6.20;;
21905;SDS011;11117;48.644;9.006;2022-08-24T03:52:47;11.00;;;6.20;;
21905;SDS011;11117;48.644;9.006;2022-08-24T03:55:13;9.73;;;6.20;;
21905;SDS011;11117;48.644;9.006;2022-08-24T03:57:39;9.30;;;6.00;;
21905;SDS011;11117;48.644;9.006;2022-08-24T04:00:06;8.33;;;5.60;;
21905;SDS011;11117;48.644;9.006;2022-08-24T04:02:33;8.10;;;5.80;;
21905;SDS011;11117;48.644;9.006;2022-08-24T04:04:59;8.57;;;6.27;;
21905;SDS011;11117;48.644;9.006;2022-08-24T04:07:24;8.87;;;5.60;;
21905;SDS011;11117;48.644;9.006;2022-08-24T04:09:50;7.57;;;5.90;;
21905;SDS011;11117;48.644;9.006;2022-08-24T04:12:16;6.10;;;5.50;;
21905;SDS011;11117;48.644;9.006;2022-08-24T04:14:41;6.40;;;5.20;;
21905;SDS011;11117;48.644;9.006;2022-08-24T04:17:07;8.93;;;5.70;;
21905;SDS011;11117;48.644;9.006;2022-08-24T04:19:33;10.83;;;5.70;;
21905;SDS011;11117;48.644;9.006;2022-08-24T04:21:58;14.20;;;7.93;;
21905;SDS011;11117;48.644;9.006;2022-08-24T04:24:24;9.67;;;6.50;;
21905;SDS011;11117;48.644;9.006;2022-08-24T04:26:50;9.53;;;5.90;;
21905;SDS011;11117;48.644;9.006;2022-08-24T04:29:17;8.00;;;5.73;;
21905;SDS011;11117;48.644;9.006;2022-08-24T04:31:44;6.80;;;5.43;;
21905;SDS011;11117;48.644;9.006;2022-08-24T04:34:10;10.67;;;6.00;;
21905;SDS011;11117;48.644;9.006;2022-08-24T04:36:41;9.70;;;6.10;;
21905;SDS011;11117;48.644;9.006;2022-08-24T04:39:07;6.50;;;5.70;;
21905;SDS011;11117;48.644;9.006;2022-08-24T04:41:33;10.50;;;5.63;;
21905;SDS011;11117;48.644;9.006;2022-08-24T04:43:59;7.33;;;5.70;;
21905;SDS011;11117;48.644;9.006;2022-08-24T04:46:25;11.70;;;6.00;;
21905;SDS011;11117;48.644;9.006;2022-08-24T04:48:52;7.17;;;5.50;;
21905;SDS011;11117;48.644;9.006;2022-08-24T04:51:17;9.13;;;5.87;;
21905;SDS011;11117;48.644;9.006;2022-08-24T04:53:44;6.00;;;5.40;;
21905;SDS011;11117;48.644;9.006;2022-08-24T04:56:19;8.80;;;5.67;;
21905;SDS011;11117;48.644;9.006;2022-08-24T04:58:46;8.53;;;5.30;;
21905;SDS011;11117;48.644;9.006;2022-08-24T05:01:13;7.93;;;5.70;;
21905;SDS011;11117;48.644;9.006;2022-08-24T05:03:42;8.10;;;5.47;;
21905;SDS011;11117;48.644;9.006;2022-08-24T05:06:09;9.97;;;6.30;;
21905;SDS011;11117;48.644;9.006;2022-08-24T05:08:36;9.10;;;5.97;;
21905;SDS011;11117;48.644;9.006;2022-08-24T05:11:02;10.17;;;5.90;;
21905;SDS011;11117;48.644;9.006;2022-08-24T05:13:29;6.77;;;6.03;;
21905;SDS011;11117;48.644;9.006;2022-08-24T05:15:54;8.87;;;5.83;;
21905;SDS011;11117;48.644;9.006;2022-08-24T05:18:20;9.07;;;6.30;;
21905;SDS011;11117;48.644;9.006;2022-08-24T05:20:46;10.63;;;5.73;;
21905;SDS011;11117;48.644;9.006;2022-08-24T05:23:12;7.70;;;5.87;;
21905;SDS011;11117;48.644;9.006;2022-08-24T05:25:38;7.37;;;5.47;;
21905;SDS011;11117;48.644;9.006;2022-08-24T05:28:04;14.40;;;5.60;;
21905;SDS011;11117;48.644;9.006;2022-08-24T05:30:30;9.00;;;6.03;;
21905;SDS011;11117;48.644;9.006;2022-08-24T05:32:56;7.63;;;5.50;;
21905;SDS011;11117;48.644;9.006;2022-08-24T05:35:21;10.23;;;5.60;;
21905;SDS011;11117;48.644;9.006;2022-08-24T05:37:50;8.60;;;5.87;;
21905;SDS011;11117;48.644;9.006;2022-08-24T05:40:16;9.30;;;5.93;;
21905;SDS011;11117;48.644;9.006;2022-08-24T05:42:43;7.43;;;5.87;;
21905;SDS011;11117;48.644;9.006;2022-08-24T05:45:09;8.90;;;5.37;;
21905;SDS011;11117;48.644;9.006;2022-08-24T05:47:35;8.33;;;5.97;;
21905;SDS011;11117;48.644;9.006;2022-08-24T05:50:01;9.40;;;5.63;;
21905;SDS011;11117;48.644;9.006;2022-08-24T05:52:27;8.47;;;5.40;;
21905;SDS011;11117;48.644;9.006;2022-08-24T05:54:54;8.45;;;5.65;;
21905;SDS011;11117;48.644;9.006;2022-08-24T05:57:22;6.53;;;5.03;;
21905;SDS011;11117;48.644;9.006;2022-08-24T05:59:55;10.73;;;6.10;;
21905;SDS011;11117;48.644;9.006;2022-08-24T06:02:21;9.00;;;5.25;;
21905;SDS011;11117;48.644;9.006;2022-08-24T06:04:47;7.60;;;5.40;;
21905;SDS011;11117;48.644;9.006;2022-08-24T06:07:12;8.83;;;5.60;;
21905;SDS011;11117;48.644;9.006;2022-08-24T06:09:38;12.73;;;5.72;;
21905;SDS011;11117;48.644;9.006;2022-08-24T06:12:05;8.30;;;5.50;;
21905;SDS011;11117;48.644;9.006;2022-08-24T06:14:31;5.85;;;5.05;;
21905;SDS011;11117;48.644;9.006;2022-08-24T06:16:57;10.23;;;6.07;;
21905;SDS011;11117;48.644;9.006;2022-08-24T06:19:22;9.27;;;5.90;;
21905;SDS011;11117;48.644;9.006;2022-08-24T06:21:49;7.35;;;5.90;;
21905;SDS011;11117;48.644;9.006;2022-08-24T06:24:16;7.63;;;5.25;;
21905;SDS011;11117;48.644;9.006;2022-08-24T06:26:43;11.32;;;5.90;;
21905;SDS011;11117;48.644;9.006;2022-08-24T06:29:09;9.45;;;5.60;;
21905;SDS011;11117;48.644;9.006;2022-08-24T06:31:36;10.07;;;5.40;;
21905;SDS011;11117;48.644;9.006;2022-08-24T06:34:02;8.30;;;5.32;;
21905;SDS011;11117;48.644;9.006;2022-08-24T06:37:05;7.30;;;5.30;;
21905;SDS011;11117;48.644;9.006;2022-08-24T06:39:30;8.05;;;5.35;;
21905;SDS011;11117;48.644;9.006;2022-08-24T06:41:59;5.65;;;5.00;;
21905;SDS011;11117;48.644;9.006;2022-08-24T06:44:24;7.20;;;5.18;;
21905;SDS011;11117;48.644;9.006;2022-08-24T06:46:50;7.63;;;4.70;;
21905;SDS011;11117;48.644;9.006;2022-08-24T06:49:15;7.72;;;5.20;;
21905;SDS011;11117;48.644;9.006;2022-08-24T06:51:41;7.72;;;4.78;;
21905;SDS011;11117;48.644;9.006;2022-08-24T06:54:07;6.90;;;5.20;;
21905;SDS011;11117;48.644;9.006;2022-08-24T06:56:34;9.13;;;5.22;;
21905;SDS011;11117;48.644;9.006;2022-08-24T06:59:00;7.93;;;5.40;;
21905;SDS011;11117;48.644;9.006;2022-08-24T07:01:26;7.75;;;4.75;;
21905;SDS011;11117;48.644;9.006;2022-08-24T07:03:52;6.95;;;4.60;;
21905;SDS011;11117;48.644;9.006;2022-08-24T07:06:20;6.30;;;5.03;;
21905;SDS011;11117;48.644;9.006;2022-08-24T07:08:47;10.43;;;4.50;;
21905;SDS011;11117;48.644;9.006;2022-08-24T07:11:14;5.68;;;4.57;;
21905;SDS011;11117;48.644;9.006;2022-08-24T07:13:41;9.50;;;4.68;;
21905;SDS011;11117;48.644;9.006;2022-08-24T07:16:08;7.43;;;4.50;;
21905;SDS011;11117;48.644;9.006;2022-08-24T07:18:34;6.80;;;4.47;;
21905;SDS011;11117;48.644;9.006;2022-08-24T07:21:00;7.85;;;4.72;;
21905;SDS011;11117;48.644;9.006;2022-08-24T07:23:25;5.78;;;4.90;;
21905;SDS011;11117;48.644;9.006;2022-08-24T07:25:51;5.22;;;4.20;;
21905;SDS011;11117;48.644;9.006;2022-08-24T07:28:17;7.80;;;3.70;;
21905;SDS011;11117;48.644;9.006;2022-08-24T07:30:43;7.35;;;3.85;;
21905;SDS011;11117;48.644;9.006;2022-08-24T07:33:08;7.97;;;3.92;;
21905;SDS011;11117;48.644;9.006;2022-08-24T07:35:34;4.97;;;3.75;;
21905;SDS011;11117;48.644;9.006;2022-08-24T07:38:00;5.53;;;3.30;;
21905;SDS011;11117;48.644;9.006;2022-08-24T07:40:28;4.10;;;3.05;;
21905;SDS011;11117;48.644;9.006;2022-08-24T07:42:54;4.07;;;3.03;;
21905;SDS011;11117;48.644;9.006;2022-08-24T07:45:21;7.00;;;3.70;;
21905;SDS011;11117;48.644;9.006;2022-08-24T07:47:47;6.63;;;3.40;;
21905;SDS011;11117;48.644;9.006;2022-08-24T07:50:13;8.25;;;3.10;;
21905;SDS011;11117;48.644;9.006;2022-08-24T07:52:40;4.35;;;2.65;;
21905;SDS011;11117;48.644;9.006;2022-08-24T07:55:06;4.75;;;2.92;;
21905;SDS011;11117;48.644;9.006;2022-08-24T07:57:32;6.25;;;3.03;;
21905;SDS011;11117;48.644;9.006;2022-08-24T07:59:58;5.85;;;2.90;;
21905;SDS011;11117;48.644;9.006;2022-08-24T08:02:24;8.07;;;2.80;;
21905;SDS011;11117;48.644;9.006;2022-08-24T08:04:54;6.03;;;3.08;;
21905;SDS011;11117;48.644;9.006;2022-08-24T08:07:19;6.10;;;2.90;;
21905;SDS011;11117;48.644;9.006;2022-08-24T08:09:45;10.70;;;3.03;;
21905;SDS011;11117;48.644;9.006;2022-08-24T08:12:11;8.27;;;2.83;;
21905;SDS011;11117;48.644;9.006;2022-08-24T08:14:36;3.78;;;2.63;;
21905;SDS011;11117;48.644;9.006;2022-08-24T08:17:02;6.75;;;2.55;;
21905;SDS011;11117;48.644;9.006;2022-08-24T08:19:27;5.32;;;2.60;;
21905;SDS011;11117;48.644;9.006;2022-08-24T08:21:54;5.97;;;2.78;;
21905;SDS011;11117;48.644;9.006;2022-08-24T08:24:20;7.65;;;2.70;;
21905;SDS011;11117;48.644;9.006;2022-08-24T08:26:48;3.40;;;2.70;;
21905;SDS011;11117;48.644;9.006;2022-08-24T08:29:14;3.63;;;2.40;;
21905;SDS011;11117;48.644;9.006;2022-08-24T08:31:43;4.28;;;2.60;;
21905;SDS011;11117;48.644;9.006;2022-08-24T08:34:08;4.63;;;2.50;;
21905;SDS011;11117;48.644;9.006;2022-08-24T08:36:36;5.07;;;2.53;;
21905;SDS011;11117;48.644;9.006;2022-08-24T08:39:03;3.55;;;2.40;;
21905;SDS011;11117;48.644;9.006;2022-08-24T08:55:41;8.45;;;2.38;;
21905;SDS011;11117;48.644;9.006;2022-08-24T09:01:04;7.15;;;2.47;;
21905;SDS011;11117;48.644;9.006;2022-08-24T09:10:16;5.10;;;1.52;;
21905;SDS011;11117;48.644;9.006;2022-08-24T09:15:34;5.55;;;1.63;;
21905;SDS011;11117;48.644;9.006;2022-08-24T09:26:30;3.50;;;1.70;;
21905;SDS011;11117;48.644;9.006;2022-08-24T09:29:15;6.15;;;1.70;;
21905;SDS011;11117;48.644;9.006;2022-08-24T09:34:31;3.55;;;2.00;;
21905;SDS011;11117;48.644;9.006;2022-08-24T09:56:55;2.88;;;1.70;;
21905;SDS011;11117;48.644;9.006;2022-08-24T09:59:39;3.92;;;1.60;;
21905;SDS011;11117;48.644;9.006;2022-08-24T10:08:03;8.18;;;1.48;;
21905;SDS011;11117;48.644;9.006;2022-08-24T10:10:36;3.38;;;1.60;;
21905;SDS011;11117;48.644;9.006;2022-08-24T10:21:52;4.57;;;1.38;;
21905;SDS011;11117;48.644;9.006;2022-08-24T10:30:26;5.88;;;1.60;;
21905;SDS011;11117;48.644;9.006;2022-08-24T10:44:51;5.05;;;1.92;;
21905;SDS011;11117;48.644;9.006;2022-08-24T10:47:27;2.75;;;1.40;;
21905;SDS011;11117;48.644;9.006;2022-08-24T10:50:02;2.60;;;1.55;;
21905;SDS011;11117;48.644;9.006;2022-08-24T10:55:18;3.60;;;1.80;;
21905;SDS011;11117;48.644;9.006;2022-08-24T11:00:34;1.80;;;1.70;;
21905;SDS011;11117;48.644;9.006;2022-08-24T11:03:08;2.25;;;1.73;;
21905;SDS011;11117;48.644;9.006;2022-08-24T11:05:37;1.88;;;1.60;;
21905;SDS011;11117;48.644;9.006;2022-08-24T11:08:22;9.55;;;1.73;;
21905;SDS011;11117;48.644;9.006;2022-08-24T11:11:03;5.53;;;1.70;;
21905;SDS011;11117;48.644;9.006;2022-08-24T11:13:49;5.18;;;1.63;;
21905;SDS011;11117;48.644;9.006;2022-08-24T11:16:23;2.45;;;1.80;;
21905;SDS011;11117;48.644;9.006;2022-08-24T11:18:52;4.00;;;1.75;;
21905;SDS011;11117;48.644;9.006;2022-08-24T11:21:30;2.10;;;1.58;;
21905;SDS011;11117;48.644;9.006;2022-08-24T11:24:08;1.90;;;1.50;;
21905;SDS011;11117;48.644;9.006;2022-08-24T11:26:56;3.78;;;1.70;;
21905;SDS011;11117;48.644;9.006;2022-08-24T11:29:53;2.63;;;1.73;;
21905;SDS011;11117;48.644;9.006;2022-08-24T11:32:24;5.07;;;1.95;;
21905;SDS011;11117;48.644;9.006;2022-08-24T11:34:51;2.05;;;1.48;;
21905;SDS011;11117;48.644;9.006;2022-08-24T11:37:21;2.75;;;1.50;;
21905;SDS011;11117;48.644;9.006;2022-08-24T11:39:48;5.80;;;1.60;;
21905;SDS011;11117;48.644;9.006;2022-08-24T11:42:21;5.65;;;1.60;;
21905;SDS011;11117;48.644;9.006;2022-08-24T11:44:55;5.28;;;1.58;;
21905;SDS011;11117;48.644;9.006;2022-08-24T11:50:04;4.63;;;1.30;;
21905;SDS011;11117;48.644;9.006;2022-08-24T11:56:01;1.83;;;1.10;;
21905;SDS011;11117;48.644;9.006;2022-08-24T11:59:11;4.03;;;1.40;;
21905;SDS011;11117;48.644;9.006;2022-08-24T12:02:03;1.77;;;1.30;;
21905;SDS011;11117;48.644;9.006;2022-08-24T12:04:40;2.67;;;1.60;;
21905;SDS011;11117;48.644;9.006;2022-08-24T12:07:44;4.80;;;1.60;;
21905;SDS011;11117;48.644;9.006;2022-08-24T12:13:35;5.75;;;1.48;;
21905;SDS011;11117;48.644;9.006;2022-08-24T12:16:11;3.80;;;1.33;;
21905;SDS011;11117;48.644;9.006;2022-08-24T12:19:03;2.92;;;1.50;;
21905;SDS011;11117;48.644;9.006;2022-08-24T12:21:36;4.10;;;1.40;;
21905;SDS011;11117;48.644;9.006;2022-08-24T12:24:11;2.40;;;1.38;;
21905;SDS011;11117;48.644;9.006;2022-08-24T12:27:03;8.02;;;1.55;;
21905;SDS011;11117;48.644;9.006;2022-08-24T12:29:43;4.18;;;1.55;;
21905;SDS011;11117;48.644;9.006;2022-08-24T12:35:15;1.02;;;0.98;;
21905;SDS011;11117;48.644;9.006;2022-08-24T12:37:48;3.85;;;1.33;;
21905;SDS011;11117;48.644;9.006;2022-08-24T12:40:43;3.03;;;1.27;;
21905;SDS011;11117;48.644;9.006;2022-08-24T12:46:12;1.30;;;1.13;;
21905;SDS011;11117;48.644;9.006;2022-08-24T12:48:40;8.15;;;1.23;;
21905;SDS011;11117;48.644;9.006;2022-08-24T12:51:25;3.90;;;1.10;;
21905;SDS011;11117;48.644;9.006;2022-08-24T13:18:25;2.65;;;1.15;;
21905;SDS011;11117;48.644;9.006;2022-08-24T13:25:54;3.08;;;1.10;;
21905;SDS011;11117;48.644;9.006;2022-08-24T13:28:42;5.10;;;1.35;;
21905;SDS011;11117;48.644;9.006;2022-08-24T13:31:14;4.18;;;1.20;;
21905;SDS011;11117;48.644;9.006;2022-08-24T13:33:52;5.70;;;1.10;;
21905;SDS011;11117;48.644;9.006;2022-08-24T13:44:08;3.97;;;1.10;;
21905;SDS011;11117;48.644;9.006;2022-08-24T13:46:47;3.88;;;1.00;;
21905;SDS011;11117;48.644;9.006;2022-08-24T13:49:48;1.33;;;0.93;;
21905;SDS011;11117;48.644;9.006;2022-08-24T13:52:27;4.03;;;0.80;;
21905;SDS011;11117;48.644;9.006;2022-08-24T13:57:49;3.70;;;1.00;;
21905;SDS011;11117;48.644;9.006;2022-08-24T14:00:34;0.93;;;0.90;;
21905;SDS011;11117;48.644;9.006;2022-08-24T14:14:03;1.02;;;0.90;;
21905;SDS011;11117;48.644;9.006;2022-08-24T14:16:44;1.48;;;1.15;;
21905;SDS011;11117;48.644;9.006;2022-08-24T14:22:34;2.47;;;1.10;;
21905;SDS011;11117;48.644;9.006;2022-08-24T14:25:13;0.90;;;0.90;;
21905;SDS011;11117;48.644;9.006;2022-08-24T14:28:26;1.42;;;1.10;;
21905;SDS011;11117;48.644;9.006;2022-08-24T14:30:46;1.48;;;1.20;;
21905;SDS011;11117;48.644;9.006;2022-08-24T14:33:17;1.45;;;1.10;;
21905;SDS011;11117;48.644;9.006;2022-08-24T14:36:18;1.25;;;1.00;;
21905;SDS011;11117;48.644;9.006;2022-08-24T14:39:03;2.70;;;1.30;;
21905;SDS011;11117;48.644;9.006;2022-08-24T14:44:22;3.65;;;1.08;;
21905;SDS011;11117;48.644;9.006;2022-08-24T14:47:26;1.88;;;1.10;;
21905;SDS011;11117;48.644;9.006;2022-08-24T14:55:28;1.42;;;1.30;;
21905;SDS011;11117;48.644;9.006;2022-08-24T15:03:35;6.68;;;1.38;;
21905;SDS011;11117;48.644;9.006;2022-08-24T15:08:50;4.18;;;1.33;;
21905;SDS011;11117;48.644;9.006;2022-08-24T15:11:17;5.80;;;1.33;;
21905;SDS011;11117;48.644;9.006;2022-08-24T15:13:55;3.80;;;1.85;;
21905;SDS011;11117;48.644;9.006;2022-08-24T15:19:21;1.30;;;1.20;;
21905;SDS011;11117;48.644;9.006;2022-08-24T15:24:51;2.05;;;1.40;;
21905;SDS011;11117;48.644;9.006;2022-08-24T15:30:22;2.20;;;1.20;;
21905;SDS011;11117;48.644;9.006;2022-08-24T15:35:42;2.80;;;1.40;;
21905;SDS011;11117;48.644;9.006;2022-08-24T15:41:11;2.50;;;1.60;;
21905;SDS011;11117;48.644;9.006;2022-08-24T15:43:42;7.20;;;1.77;;
21905;SDS011;11117;48.644;9.006;2022-08-24T15:46:11;2.50;;;1.60;;
21905;SDS011;11117;48.644;9.006;2022-08-24T15:48:39;3.30;;;1.50;;
21905;SDS011;11117;48.644;9.006;2022-08-24T15:51:06;1.75;;;1.60;;
21905;SDS011;11117;48.644;9.006;2022-08-24T15:53:39;2.75;;;1.70;;
21905;SDS011;11117;48.644;9.006;2022-08-24T15:58:59;2.17;;;1.60;;
21905;SDS011;11117;48.644;9.006;2022-08-24T16:01:32;3.55;;;1.40;;
21905;SDS011;11117;48.644;9.006;2022-08-24T16:03:59;2.08;;;1.60;;
21905;SDS011;11117;48.644;9.006;2022-08-24T16:06:43;4.30;;;1.65;;
21905;SDS011;11117;48.644;9.006;2022-08-24T16:11:49;1.63;;;1.40;;
21905;SDS011;11117;48.644;9.006;2022-08-24T16:14:25;3.15;;;1.60;;
21905;SDS011;11117;48.644;9.006;2022-08-24T16:16:51;3.03;;;1.77;;
21905;SDS011;11117;48.644;9.006;2022-08-24T16:19:25;1.88;;;1.70;;
21905;SDS011;11117;48.644;9.006;2022-08-24T16:21:57;3.05;;;1.70;;
21905;SDS011;11117;48.644;9.006;2022-08-24T16:24:32;2.20;;;1.67;;
21905;SDS011;11117;48.644;9.006;2022-08-24T16:27:07;4.07;;;1.65;;
21905;SDS011;11117;48.644;9.006;2022-08-24T16:34:41;4.85;;;1.77;;
21905;SDS011;11117;48.644;9.006;2022-08-24T16:37:09;5.75;;;1.80;;
21905;SDS011;11117;48.644;9.006;2022-08-24T16:39:34;5.70;;;1.65;;
21905;SDS011;11117;48.644;9.006;2022-08-24T16:42:12;1.50;;;1.40;;
21905;SDS011;11117;48.644;9.006;2022-08-24T16:44:53;3.22;;;1.73;;
21905;SDS011;11117;48.644;9.006;2022-08-24T16:47:32;2.97;;;1.80;;
21905;SDS011;11117;48.644;9.006;2022-08-24T16:49:57;3.85;;;1.55;;
21905;SDS011;11117;48.644;9.006;2022-08-24T16:52:26;3.25;;;1.85;;
21905;SDS011;11117;48.644;9.006;2022-08-24T16:55:01;2.22;;;1.70;;
21905;SDS011;11117;48.644;9.006;2022-08-24T16:57:31;2.75;;;1.65;;
21905;SDS011;11117;48.644;9.006;2022-08-24T16:59:58;4.00;;;1.98;;
21905;SDS011;11117;48.644;9.006;2022-08-24T17:02:26;3.45;;;1.83;;
21905;SDS011;11117;48.644;9.006;2022-08-24T17:04:52;3.97;;;1.83;;
21905;SDS011;11117;48.644;9.006;2022-08-24T17:07:19;2.08;;;1.88;;
21905;SDS011;11117;48.644;9.006;2022-08-24T17:09:49;3.30;;;1.85;;
21905;SDS011;11117;48.644;9.006;2022-08-24T17:12:16;3.05;;;1.90;;
21905;SDS011;11117;48.644;9.006;2022-08-24T17:14:48;2.00;;;1.80;;
21905;SDS011;11117;48.644;9.006;2022-08-24T17:17:17;4.25;;;1.80;;
21905;SDS011;11117;48.644;9.006;2022-08-24T17:19:50;2.22;;;1.90;;
21905;SDS011;11117;48.644;9.006;2022-08-24T17:22:25;5.28;;;1.80;;
21905;SDS011;11117;48.644;9.006;2022-08-24T17:24:51;5.00;;;2.05;;
21905;SDS011;11117;48.644;9.006;2022-08-24T17:27:22;2.92;;;1.80;;
21905;SDS011;11117;48.644;9.006;2022-08-24T17:30:01;3.50;;;1.80;;
21905;SDS011;11117;48.644;9.006;2022-08-24T17:32:33;1.73;;;1.63;;
21905;SDS011;11117;48.644;9.006;2022-08-24T17:35:05;2.75;;;2.05;;
21905;SDS011;11117;48.644;9.006;2022-08-24T17:37:31;4.20;;;1.60;;
21905;SDS011;11117;48.644;9.006;2022-08-24T17:39:57;2.60;;;1.88;;
21905;SDS011;11117;48.644;9.006;2022-08-24T17:42:23;2.90;;;1.80;;
21905;SDS011;11117;48.644;9.006;2022-08-24T17:44:49;3.60;;;1.70;;
21905;SDS011;11117;48.644;9.006;2022-08-24T17:47:14;5.45;;;2.15;;
21905;SDS011;11117;48.644;9.006;2022-08-24T17:49:40;4.22;;;1.70;;
21905;SDS011;11117;48.644;9.006;2022-08-24T17:52:06;7.38;;;2.00;;
21905;SDS011;11117;48.644;9.006;2022-08-24T17:54:31;3.05;;;1.83;;
21905;SDS011;11117;48.644;9.006;2022-08-24T17:57:03;5.20;;;1.83;;
21905;SDS011;11117;48.644;9.006;2022-08-24T17:59:32;4.63;;;2.05;;
21905;SDS011;11117;48.644;9.006;2022-08-24T18:02:04;3.03;;;1.90;;
21905;SDS011;11117;48.644;9.006;2022-08-24T18:04:33;4.00;;;2.05;;
21905;SDS011;11117;48.644;9.006;2022-08-24T18:07:00;3.05;;;2.10;;
21905;SDS011;11117;48.644;9.006;2022-08-24T18:09:34;4.28;;;1.70;;
21905;SDS011;11117;48.644;9.006;2022-08-24T18:12:03;7.32;;;2.00;;
21905;SDS011;11117;48.644;9.006;2022-08-24T18:14:29;4.50;;;1.70;;
21905;SDS011;11117;48.644;9.006;2022-08-24T18:17:06;3.45;;;1.80;;
21905;SDS011;11117;48.644;9.006;2022-08-24T18:19:35;2.00;;;1.63;;
21905;SDS011;11117;48.644;9.006;2022-08-24T18:22:01;2.95;;;1.90;;
21905;SDS011;11117;48.644;9.006;2022-08-24T18:24:28;3.97;;;1.90;;
21905;SDS011;11117;48.644;9.006;2022-08-24T18:26:54;3.47;;;1.80;;
21905;SDS011;11117;48.644;9.006;2022-08-24T18:29:22;2.03;;;1.75;;
21905;SDS011;11117;48.644;9.006;2022-08-24T18:31:50;3.85;;;2.30;;